Terminal Aerodrome Forecast
Issued by NWS

Home | Current Version | Previous Version | Text Only | Print | Product List | Glossary On
Versions: 1 2 3 4 5 6 7 8 9 10 11 12 13 14 15 16 17 18 19 20 21 22 23 24 25 26 27 28
456
FTUS41 KBOX 131139
TAFACK
TAF
KACK 131139Z 1312/1412 13012KT P6SM BKN150
     FM140100 11015G23KT P6SM OVC040
     FM140200 11015G22KT P6SM VCSH OVC030
     FM140400 12016G24KT P6SM -RA OVC020 WS020/14050KT
     FM140500 12016G26KT 6SM -RA BR OVC015 WS020/14050KT
     FM140600 12016G26KT 1SM +RA BR OVC010 WS020/14055KT=

USA.gov is the U.S. government's official web portal to all federal, state and local government web resources and services.